<?xml version="1.0" encoding="UTF-8"?>
<gpx version="1.1" creator="2bulu-scraper" xmlns="http://www.topografix.com/GPX/1/1">
  <metadata><name>毕节羊塘环线 307</name><desc>source: 2bulu.com trackId=83036893; exported 2026-09-01T18:30:51.543Z</desc>
    <bounds minlat="27.342529" minlon="105.1723087" maxlat="27.426459" maxlon="105.2271133"/>
    <link href="https://www.2bulu.com/track/t-pTL67x7zzJvp%252FR2KBg5Tzw%253D%253D.htm"><text>2bulu 源页面</text></link>
  </metadata>
  <wpt lat="27.4074813" lon="105.201665"><ele>1788</ele><name>
        </name></wpt>
  <wpt lat="27.4074813" lon="105.201665"><ele>1788</ele><name>
        </name></wpt>
  <wpt lat="27.4074813" lon="105.201665"><ele>1788</ele><name>
        </name></wpt>
  <wpt lat="27.4074813" lon="105.201665"><ele>1788</ele><name>
        </name></wpt>
  <wpt lat="27.4074813" lon="105.201665"><ele>1788</ele><name>
        </name></wpt>
  <wpt lat="27.4074813" lon="105.201665"><ele>1788</ele><name>
        </name></wpt>
  <wpt lat="27.4074813" lon="105.201665"><ele>1788</ele><name>
        </name></wpt>
  <wpt lat="27.4074813" lon="105.201665"><ele>1788</ele><name>
        </name></wpt>
  <wpt lat="27.4074813" lon="105.201665"><ele>1788</ele><name>
        </name></wpt>
  <wpt lat="27.3994905" lon="105.2021128"><ele>1889</ele><name>
        </name></wpt>
  <wpt lat="27.3994865" lon="105.2021165"><ele>1889</ele><name>
        </name></wpt>
  <wpt lat="27.3994888" lon="105.2021274"><ele>1889</ele><name>
        </name></wpt>
  <wpt lat="27.3957497" lon="105.1972658"><ele>1815</ele><name>
        </name></wpt>
  <wpt lat="27.3938725" lon="105.1953698"><ele>1794</ele><name>
        </name></wpt>
  <wpt lat="27.3938362" lon="105.1952792"><ele>1827</ele><name>
        </name></wpt>
  <wpt lat="27.3879574" lon="105.1890482"><ele>1852</ele><name>
        </name></wpt>
  <wpt lat="27.3879594" lon="105.1890446"><ele>1852</ele><name>
        </name></wpt>
  <wpt lat="27.3856076" lon="105.186343"><ele>1935</ele><name>
        </name></wpt>
  <wpt lat="27.3856072" lon="105.1863433"><ele>1935</ele><name>
        </name></wpt>
  <wpt lat="27.3763784" lon="105.1892824"><ele>2078</ele><name>
        </name></wpt>
  <wpt lat="27.3763784" lon="105.1892781"><ele>2078</ele><name>
        </name></wpt>
  <wpt lat="27.3730877" lon="105.1850364"><ele>2111</ele><name>
        </name></wpt>
  <wpt lat="27.3520189" lon="105.1740543"><ele>1917</ele><name>
        </name></wpt>
  <wpt lat="27.3478497" lon="105.174256"><ele>1936</ele><name>
        </name></wpt>
  <wpt lat="27.3478557" lon="105.1743026"><ele>1935</ele><name>
        </name></wpt>
  <wpt lat="27.3556775" lon="105.1916928"><ele>1852</ele><name>
        </name></wpt>
  <wpt lat="27.3568442" lon="105.1906677"><ele>1798</ele><name>
        </name></wpt>
  <wpt lat="27.3568412" lon="105.1906664"><ele>1828</ele><name>
        </name></wpt>
  <wpt lat="27.3568399" lon="105.1906615"><ele>1828</ele><name>
        </name></wpt>
  <wpt lat="27.3589226" lon="105.1897636"><ele>1820</ele><name>
        </name></wpt>
  <wpt lat="27.3589545" lon="105.1897619"><ele>1819</ele><name>
        </name></wpt>
  <wpt lat="27.3596817" lon="105.1895319"><ele>1825</ele><name>
        </name></wpt>
  <wpt lat="27.3759609" lon="105.2022479"><ele>1724</ele><name>
        </name></wpt>
  <wpt lat="27.3765102" lon="105.2027795"><ele>1718</ele><name>
        </name></wpt>
  <wpt lat="27.3765102" lon="105.2027795"><ele>1718</ele><name>
        </name></wpt>
  <wpt lat="27.3776059" lon="105.2035352"><ele>1715</ele><name>
        </name></wpt>
  <wpt lat="27.3822735" lon="105.2079058"><ele>1694</ele><name>
        </name></wpt>
  <wpt lat="27.4158517" lon="105.2234139"><ele>1812</ele><name>
        </name></wpt>
  <trk><name>毕节羊塘环线 307</name>
      <trkseg>
        <trkpt lat="27.4074813" lon="105.201665"><ele>1788.18</ele><time>2026-04-24T18:20:11.000Z</time></trkpt>
        <trkpt lat="27.4074264" lon="105.2013958"><ele>1788.21</ele><time>2026-04-24T18:20:33.000Z</time></trkpt>
        <trkpt lat="27.4071024" lon="105.2029767"><ele>1790.89</ele><time>2026-04-24T18:27:46.000Z</time></trkpt>
        <trkpt lat="27.4062233" lon="105.2036624"><ele>1808.12</ele><time>2026-04-24T18:30:03.000Z</time></trkpt>
        <trkpt lat="27.4061514" lon="105.2040742"><ele>1816.46</ele><time>2026-04-24T18:30:55.000Z</time></trkpt>
        <trkpt lat="27.405595" lon="105.2044648"><ele>1836.49</ele><time>2026-04-24T18:34:14.000Z</time></trkpt>
        <trkpt lat="27.4052654" lon="105.2043736"><ele>1843.2</ele><time>2026-04-24T18:38:26.000Z</time></trkpt>
        <trkpt lat="27.4047349" lon="105.2046698"><ele>1860.74</ele><time>2026-04-24T18:40:51.000Z</time></trkpt>
        <trkpt lat="27.4041921" lon="105.2047513"><ele>1885.02</ele><time>2026-04-24T18:43:57.000Z</time></trkpt>
        <trkpt lat="27.4038175" lon="105.2045308"><ele>1901.04</ele><time>2026-04-24T18:50:19.000Z</time></trkpt>
        <trkpt lat="27.4033287" lon="105.2047186"><ele>1924.6</ele><time>2026-04-24T18:58:03.000Z</time></trkpt>
        <trkpt lat="27.4033157" lon="105.2043864"><ele>1929.73</ele><time>2026-04-24T18:59:51.000Z</time></trkpt>
        <trkpt lat="27.4025463" lon="105.2042057"><ele>1930.78</ele><time>2026-04-24T19:01:57.000Z</time></trkpt>
        <trkpt lat="27.4020592" lon="105.2044878"><ele>1918.93</ele><time>2026-04-24T19:08:06.000Z</time></trkpt>
        <trkpt lat="27.4014746" lon="105.2045087"><ele>1910.01</ele><time>2026-04-24T19:09:27.000Z</time></trkpt>
        <trkpt lat="27.4013312" lon="105.2047255"><ele>1904.3</ele><time>2026-04-24T19:10:07.000Z</time></trkpt>
        <trkpt lat="27.4009088" lon="105.2046484"><ele>1902.57</ele><time>2026-04-24T19:11:17.000Z</time></trkpt>
        <trkpt lat="27.400777" lon="105.2041198"><ele>1899.6</ele><time>2026-04-24T19:13:19.000Z</time></trkpt>
        <trkpt lat="27.4004206" lon="105.2038073"><ele>1894.96</ele><time>2026-04-24T19:14:11.000Z</time></trkpt>
        <trkpt lat="27.4003359" lon="105.2028388"><ele>1887.89</ele><time>2026-04-24T19:16:08.000Z</time></trkpt>
        <trkpt lat="27.3997881" lon="105.2026672"><ele>1893.04</ele><time>2026-04-24T19:17:50.000Z</time></trkpt>
        <trkpt lat="27.3995443" lon="105.2023834"><ele>1895.38</ele><time>2026-04-24T19:18:41.000Z</time></trkpt>
        <trkpt lat="27.3992888" lon="105.2012855"><ele>1854.12</ele><time>2026-04-24T19:24:47.000Z</time></trkpt>
        <trkpt lat="27.3994003" lon="105.201107"><ele>1845.51</ele><time>2026-04-24T19:25:27.000Z</time></trkpt>
        <trkpt lat="27.3992588" lon="105.2009662"><ele>1836.8</ele><time>2026-04-24T19:26:17.000Z</time></trkpt>
        <trkpt lat="27.3995065" lon="105.2006558"><ele>1821.96</ele><time>2026-04-24T19:27:27.000Z</time></trkpt>
        <trkpt lat="27.3994" lon="105.2005277"><ele>1815.19</ele><time>2026-04-24T19:28:14.000Z</time></trkpt>
        <trkpt lat="27.3995088" lon="105.2002432"><ele>1803.09</ele><time>2026-04-24T19:29:48.000Z</time></trkpt>
        <trkpt lat="27.3991041" lon="105.1998501"><ele>1801.31</ele><time>2026-04-24T19:30:37.000Z</time></trkpt>
        <trkpt lat="27.3981551" lon="105.1998368"><ele>1803.6</ele><time>2026-04-24T19:31:59.000Z</time></trkpt>
        <trkpt lat="27.3972029" lon="105.1994262"><ele>1807.71</ele><time>2026-04-24T19:33:57.000Z</time></trkpt>
        <trkpt lat="27.3969975" lon="105.1988106"><ele>1808.97</ele><time>2026-04-24T19:35:30.000Z</time></trkpt>
        <trkpt lat="27.39576" lon="105.1972688"><ele>1815.36</ele><time>2026-04-24T19:38:34.000Z</time></trkpt>
        <trkpt lat="27.3950389" lon="105.196689"><ele>1819.92</ele><time>2026-04-24T19:40:27.000Z</time></trkpt>
        <trkpt lat="27.394651" lon="105.1957418"><ele>1823.28</ele><time>2026-04-24T19:41:59.000Z</time></trkpt>
        <trkpt lat="27.3925973" lon="105.19476"><ele>1835.24</ele><time>2026-04-24T19:47:13.000Z</time></trkpt>
        <trkpt lat="27.391634" lon="105.1938358"><ele>1840.13</ele><time>2026-04-24T19:48:53.000Z</time></trkpt>
        <trkpt lat="27.3914891" lon="105.1931661"><ele>1843.8</ele><time>2026-04-24T19:49:53.000Z</time></trkpt>
        <trkpt lat="27.3895315" lon="105.1913841"><ele>1860.3</ele><time>2026-04-24T20:05:04.000Z</time></trkpt>
        <trkpt lat="27.38854" lon="105.1895599"><ele>1877.94</ele><time>2026-04-24T20:07:59.000Z</time></trkpt>
        <trkpt lat="27.3874443" lon="105.1885116"><ele>1892.97</ele><time>2026-04-24T20:10:22.000Z</time></trkpt>
        <trkpt lat="27.3856106" lon="105.1863434"><ele>1935.21</ele><time>2026-04-24T20:15:06.000Z</time></trkpt>
        <trkpt lat="27.3856836" lon="105.1866765"><ele>1933.92</ele><time>2026-04-24T20:17:48.000Z</time></trkpt>
        <trkpt lat="27.385322" lon="105.1872176"><ele>1952.41</ele><time>2026-04-24T20:19:26.000Z</time></trkpt>
        <trkpt lat="27.3856466" lon="105.1873232"><ele>1967.77</ele><time>2026-04-24T20:21:28.000Z</time></trkpt>
        <trkpt lat="27.3855373" lon="105.1878605"><ele>1986.06</ele><time>2026-04-24T20:23:35.000Z</time></trkpt>
        <trkpt lat="27.3853674" lon="105.1878383"><ele>1991.88</ele><time>2026-04-24T20:24:16.000Z</time></trkpt>
        <trkpt lat="27.3849682" lon="105.1883058"><ele>2012.32</ele><time>2026-04-24T20:29:41.000Z</time></trkpt>
        <trkpt lat="27.3842911" lon="105.1878456"><ele>2027.82</ele><time>2026-04-24T20:31:40.000Z</time></trkpt>
        <trkpt lat="27.3837461" lon="105.1878961"><ele>2034.62</ele><time>2026-04-24T20:32:39.000Z</time></trkpt>
        <trkpt lat="27.382952" lon="105.1876725"><ele>2039.25</ele><time>2026-04-24T20:33:51.000Z</time></trkpt>
        <trkpt lat="27.3824513" lon="105.1878323"><ele>2043.17</ele><time>2026-04-24T20:36:50.000Z</time></trkpt>
        <trkpt lat="27.3822795" lon="105.1880827"><ele>2049.07</ele><time>2026-04-24T20:37:27.000Z</time></trkpt>
        <trkpt lat="27.3824125" lon="105.188671"><ele>2062.8</ele><time>2026-04-24T20:39:26.000Z</time></trkpt>
        <trkpt lat="27.3822082" lon="105.1893485"><ele>2075.29</ele><time>2026-04-24T20:41:05.000Z</time></trkpt>
        <trkpt lat="27.3817873" lon="105.1896558"><ele>2075.01</ele><time>2026-04-24T20:43:58.000Z</time></trkpt>
        <trkpt lat="27.3815947" lon="105.1900263"><ele>2070.6</ele><time>2026-04-24T20:45:59.000Z</time></trkpt>
        <trkpt lat="27.3801805" lon="105.1897342"><ele>2071.39</ele><time>2026-04-24T20:50:59.000Z</time></trkpt>
        <trkpt lat="27.3799958" lon="105.1899166"><ele>2071.38</ele><time>2026-04-24T21:11:46.000Z</time></trkpt>
        <trkpt lat="27.3792789" lon="105.1900286"><ele>2075.8</ele><time>2026-04-24T21:13:38.000Z</time></trkpt>
        <trkpt lat="27.3790468" lon="105.1899065"><ele>2085</ele><time>2026-04-24T21:14:20.000Z</time></trkpt>
        <trkpt lat="27.3781976" lon="105.1899578"><ele>2090.74</ele><time>2026-04-24T21:16:18.000Z</time></trkpt>
        <trkpt lat="27.3778952" lon="105.1896167"><ele>2087.54</ele><time>2026-04-24T21:17:04.000Z</time></trkpt>
        <trkpt lat="27.3775079" lon="105.1896852"><ele>2080.1</ele><time>2026-04-24T21:17:36.000Z</time></trkpt>
        <trkpt lat="27.3764759" lon="105.189407"><ele>2079.97</ele><time>2026-04-24T21:21:19.000Z</time></trkpt>
        <trkpt lat="27.3753078" lon="105.1882729"><ele>2070.19</ele><time>2026-04-24T21:24:51.000Z</time></trkpt>
        <trkpt lat="27.37498" lon="105.1880241"><ele>2070.5</ele><time>2026-04-24T21:25:31.000Z</time></trkpt>
        <trkpt lat="27.3748945" lon="105.1881011"><ele>2071.53</ele><time>2026-04-24T21:26:42.000Z</time></trkpt>
        <trkpt lat="27.3748382" lon="105.1876334"><ele>2080.04</ele><time>2026-04-24T21:28:31.000Z</time></trkpt>
        <trkpt lat="27.3745581" lon="105.1872976"><ele>2086.63</ele><time>2026-04-24T21:29:17.000Z</time></trkpt>
        <trkpt lat="27.3747542" lon="105.1866206"><ele>2086.18</ele><time>2026-04-24T21:30:53.000Z</time></trkpt>
        <trkpt lat="27.373769" lon="105.1850637"><ele>2091.43</ele><time>2026-04-24T21:34:11.000Z</time></trkpt>
        <trkpt lat="27.3732931" lon="105.1851072"><ele>2105.99</ele><time>2026-04-24T21:35:50.000Z</time></trkpt>
        <trkpt lat="27.3725609" lon="105.1848573"><ele>2108.78</ele><time>2026-04-24T21:37:33.000Z</time></trkpt>
        <trkpt lat="27.3717766" lon="105.1834377"><ele>2109.86</ele><time>2026-04-24T21:40:09.000Z</time></trkpt>
        <trkpt lat="27.3707519" lon="105.1831217"><ele>2105.76</ele><time>2026-04-24T21:42:20.000Z</time></trkpt>
        <trkpt lat="27.3700959" lon="105.1824407"><ele>2100.13</ele><time>2026-04-24T21:44:00.000Z</time></trkpt>
        <trkpt lat="27.3695697" lon="105.1816313"><ele>2093.59</ele><time>2026-04-24T21:47:38.000Z</time></trkpt>
        <trkpt lat="27.3694354" lon="105.1808931"><ele>2075.44</ele><time>2026-04-24T21:49:15.000Z</time></trkpt>
        <trkpt lat="27.3692526" lon="105.1807881"><ele>2079.01</ele><time>2026-04-24T21:50:25.000Z</time></trkpt>
        <trkpt lat="27.3682107" lon="105.1812925"><ele>2073.8</ele><time>2026-04-24T21:52:48.000Z</time></trkpt>
        <trkpt lat="27.3680231" lon="105.1811969"><ele>2061.03</ele><time>2026-04-24T21:53:30.000Z</time></trkpt>
        <trkpt lat="27.3674366" lon="105.1814311"><ele>2042.28</ele><time>2026-04-24T21:54:59.000Z</time></trkpt>
        <trkpt lat="27.3666311" lon="105.1814584"><ele>2021.84</ele><time>2026-04-24T21:56:51.000Z</time></trkpt>
        <trkpt lat="27.3657783" lon="105.1819685"><ele>1998.38</ele><time>2026-04-24T21:58:40.000Z</time></trkpt>
        <trkpt lat="27.3653342" lon="105.1817788"><ele>1990.12</ele><time>2026-04-24T21:59:46.000Z</time></trkpt>
        <trkpt lat="27.3647402" lon="105.1819049"><ele>1982.03</ele><time>2026-04-24T22:00:43.000Z</time></trkpt>
        <trkpt lat="27.3637463" lon="105.1812442"><ele>1949.93</ele><time>2026-04-24T22:04:52.000Z</time></trkpt>
        <trkpt lat="27.3630426" lon="105.1820754"><ele>1921.56</ele><time>2026-04-24T22:08:07.000Z</time></trkpt>
        <trkpt lat="27.3628075" lon="105.1813998"><ele>1922.09</ele><time>2026-04-24T22:09:42.000Z</time></trkpt>
        <trkpt lat="27.3612959" lon="105.1803961"><ele>1932.72</ele><time>2026-04-24T22:12:09.000Z</time></trkpt>
        <trkpt lat="27.3601221" lon="105.1803408"><ele>1943.47</ele><time>2026-04-24T22:13:50.000Z</time></trkpt>
        <trkpt lat="27.3595822" lon="105.1785499"><ele>1950.56</ele><time>2026-04-24T22:16:20.000Z</time></trkpt>
        <trkpt lat="27.3588548" lon="105.1773293"><ele>1955.27</ele><time>2026-04-24T22:19:41.000Z</time></trkpt>
        <trkpt lat="27.3587848" lon="105.1763708"><ele>1955.65</ele><time>2026-04-24T22:21:07.000Z</time></trkpt>
        <trkpt lat="27.3590348" lon="105.1757831"><ele>1959.72</ele><time>2026-04-24T22:22:14.000Z</time></trkpt>
        <trkpt lat="27.3588568" lon="105.1747296"><ele>1951.02</ele><time>2026-04-24T22:23:48.000Z</time></trkpt>
        <trkpt lat="27.3590608" lon="105.1739683"><ele>1945.64</ele><time>2026-04-24T22:25:00.000Z</time></trkpt>
        <trkpt lat="27.359811" lon="105.1732516"><ele>1947.03</ele><time>2026-04-24T22:26:57.000Z</time></trkpt>
        <trkpt lat="27.3603286" lon="105.1723087"><ele>1939.79</ele><time>2026-04-24T22:28:34.000Z</time></trkpt>
        <trkpt lat="27.3595654" lon="105.1730792"><ele>1937.01</ele><time>2026-04-24T22:30:27.000Z</time></trkpt>
        <trkpt lat="27.3590556" lon="105.1733669"><ele>1936.18</ele><time>2026-04-24T22:31:18.000Z</time></trkpt>
        <trkpt lat="27.3586962" lon="105.1740339"><ele>1935.01</ele><time>2026-04-24T22:32:13.000Z</time></trkpt>
        <trkpt lat="27.3577283" lon="105.1743672"><ele>1929.69</ele><time>2026-04-24T22:33:43.000Z</time></trkpt>
        <trkpt lat="27.3574445" lon="105.1747147"><ele>1924.97</ele><time>2026-04-24T22:34:19.000Z</time></trkpt>
        <trkpt lat="27.3569587" lon="105.1749085"><ele>1919.17</ele><time>2026-04-24T22:34:59.000Z</time></trkpt>
        <trkpt lat="27.3563877" lon="105.1756049"><ele>1906.01</ele><time>2026-04-24T22:36:57.000Z</time></trkpt>
        <trkpt lat="27.3556143" lon="105.1754518"><ele>1899.58</ele><time>2026-04-24T22:38:06.000Z</time></trkpt>
        <trkpt lat="27.3545545" lon="105.175706"><ele>1907.06</ele><time>2026-04-24T22:39:52.000Z</time></trkpt>
        <trkpt lat="27.3539955" lon="105.1756362"><ele>1914.7</ele><time>2026-04-24T22:40:48.000Z</time></trkpt>
        <trkpt lat="27.3535084" lon="105.1751914"><ele>1918.71</ele><time>2026-04-24T22:41:45.000Z</time></trkpt>
        <trkpt lat="27.3528037" lon="105.1750563"><ele>1922.84</ele><time>2026-04-24T22:42:50.000Z</time></trkpt>
        <trkpt lat="27.3520106" lon="105.1740474"><ele>1931.31</ele><time>2026-04-24T22:46:04.000Z</time></trkpt>
        <trkpt lat="27.351443" lon="105.1745287"><ele>1930.77</ele><time>2026-04-24T22:47:50.000Z</time></trkpt>
        <trkpt lat="27.3507477" lon="105.1747272"><ele>1928.65</ele><time>2026-04-24T22:49:06.000Z</time></trkpt>
        <trkpt lat="27.3498468" lon="105.1746751"><ele>1919.76</ele><time>2026-04-24T22:50:22.000Z</time></trkpt>
        <trkpt lat="27.3496022" lon="105.1745179"><ele>1918.73</ele><time>2026-04-24T22:50:52.000Z</time></trkpt>
        <trkpt lat="27.3491796" lon="105.1747968"><ele>1932.44</ele><time>2026-04-24T22:52:16.000Z</time></trkpt>
        <trkpt lat="27.348324" lon="105.1749503"><ele>1933.2</ele><time>2026-04-24T22:53:42.000Z</time></trkpt>
        <trkpt lat="27.3476092" lon="105.1739986"><ele>1932.12</ele><time>2026-04-24T22:58:55.000Z</time></trkpt>
        <trkpt lat="27.3465031" lon="105.1737797"><ele>1926.08</ele><time>2026-04-24T23:02:05.000Z</time></trkpt>
        <trkpt lat="27.3456037" lon="105.1741067"><ele>1922.12</ele><time>2026-04-24T23:04:23.000Z</time></trkpt>
        <trkpt lat="27.3453875" lon="105.1739068"><ele>1920.5</ele><time>2026-04-24T23:04:47.000Z</time></trkpt>
        <trkpt lat="27.3455268" lon="105.1736853"><ele>1914.5</ele><time>2026-04-24T23:05:15.000Z</time></trkpt>
        <trkpt lat="27.3446379" lon="105.1736076"><ele>1896.36</ele><time>2026-04-24T23:07:00.000Z</time></trkpt>
        <trkpt lat="27.3439236" lon="105.1738261"><ele>1893.45</ele><time>2026-04-24T23:08:42.000Z</time></trkpt>
        <trkpt lat="27.3437118" lon="105.1736815"><ele>1895.31</ele><time>2026-04-24T23:09:06.000Z</time></trkpt>
        <trkpt lat="27.3434109" lon="105.1728079"><ele>1879.59</ele><time>2026-04-24T23:10:37.000Z</time></trkpt>
        <trkpt lat="27.3430548" lon="105.1730537"><ele>1876.09</ele><time>2026-04-24T23:11:33.000Z</time></trkpt>
        <trkpt lat="27.3428889" lon="105.1729021"><ele>1876.44</ele><time>2026-04-24T23:12:01.000Z</time></trkpt>
        <trkpt lat="27.3431554" lon="105.1732059"><ele>1875.42</ele><time>2026-04-24T23:12:46.000Z</time></trkpt>
        <trkpt lat="27.3431836" lon="105.174365"><ele>1872.56</ele><time>2026-04-24T23:14:33.000Z</time></trkpt>
        <trkpt lat="27.342529" lon="105.1756881"><ele>1883.12</ele><time>2026-04-24T23:16:47.000Z</time></trkpt>
        <trkpt lat="27.3431582" lon="105.1775061"><ele>1893.99</ele><time>2026-04-24T23:19:31.000Z</time></trkpt>
        <trkpt lat="27.3428204" lon="105.1794299"><ele>1908.07</ele><time>2026-04-24T23:22:12.000Z</time></trkpt>
        <trkpt lat="27.3440056" lon="105.1800383"><ele>1913.24</ele><time>2026-04-24T23:25:22.000Z</time></trkpt>
        <trkpt lat="27.3449928" lon="105.1802769"><ele>1908.19</ele><time>2026-04-24T23:26:54.000Z</time></trkpt>
        <trkpt lat="27.3451464" lon="105.1808074"><ele>1908.46</ele><time>2026-04-24T23:27:40.000Z</time></trkpt>
        <trkpt lat="27.3459163" lon="105.1814445"><ele>1914.04</ele><time>2026-04-24T23:29:20.000Z</time></trkpt>
        <trkpt lat="27.3463589" lon="105.1823161"><ele>1918.96</ele><time>2026-04-24T23:30:40.000Z</time></trkpt>
        <trkpt lat="27.3466324" lon="105.1825483"><ele>1918.84</ele><time>2026-04-24T23:31:17.000Z</time></trkpt>
        <trkpt lat="27.3472107" lon="105.1824613"><ele>1918.66</ele><time>2026-04-24T23:32:54.000Z</time></trkpt>
        <trkpt lat="27.3487499" lon="105.1830505"><ele>1918.81</ele><time>2026-04-24T23:35:18.000Z</time></trkpt>
        <trkpt lat="27.349175" lon="105.1827461"><ele>1919.06</ele><time>2026-04-24T23:36:06.000Z</time></trkpt>
        <trkpt lat="27.3494186" lon="105.182856"><ele>1919.43</ele><time>2026-04-24T23:36:28.000Z</time></trkpt>
        <trkpt lat="27.3493536" lon="105.1840415"><ele>1919.3</ele><time>2026-04-24T23:39:03.000Z</time></trkpt>
        <trkpt lat="27.3490766" lon="105.1850111"><ele>1915.23</ele><time>2026-04-24T23:40:18.000Z</time></trkpt>
        <trkpt lat="27.3493433" lon="105.1858308"><ele>1914.3</ele><time>2026-04-24T23:41:21.000Z</time></trkpt>
        <trkpt lat="27.3493253" lon="105.1864273"><ele>1914.83</ele><time>2026-04-24T23:42:03.000Z</time></trkpt>
        <trkpt lat="27.3512778" lon="105.1873514"><ele>1897.07</ele><time>2026-04-24T23:46:24.000Z</time></trkpt>
        <trkpt lat="27.3528372" lon="105.1893075"><ele>1892.45</ele><time>2026-04-24T23:49:47.000Z</time></trkpt>
        <trkpt lat="27.3529947" lon="105.1897253"><ele>1895.6</ele><time>2026-04-24T23:50:23.000Z</time></trkpt>
        <trkpt lat="27.3528138" lon="105.1905849"><ele>1903.76</ele><time>2026-04-24T23:51:36.000Z</time></trkpt>
        <trkpt lat="27.3533429" lon="105.1912656"><ele>1898.29</ele><time>2026-04-24T23:52:44.000Z</time></trkpt>
        <trkpt lat="27.3535508" lon="105.1925427"><ele>1894.38</ele><time>2026-04-24T23:54:36.000Z</time></trkpt>
        <trkpt lat="27.3537264" lon="105.1927432"><ele>1894.1</ele><time>2026-04-24T23:55:00.000Z</time></trkpt>
        <trkpt lat="27.3543753" lon="105.1930125"><ele>1888.89</ele><time>2026-04-24T23:56:24.000Z</time></trkpt>
        <trkpt lat="27.3545897" lon="105.1925355"><ele>1888.21</ele><time>2026-04-24T23:58:30.000Z</time></trkpt>
        <trkpt lat="27.355127" lon="105.1922994"><ele>1874.91</ele><time>2026-04-24T23:59:48.000Z</time></trkpt>
        <trkpt lat="27.3555312" lon="105.192453"><ele>1868.64</ele><time>2026-04-25T00:02:10.000Z</time></trkpt>
        <trkpt lat="27.3556337" lon="105.1922122"><ele>1860.05</ele><time>2026-04-25T00:03:46.000Z</time></trkpt>
        <trkpt lat="27.355475" lon="105.191889"><ele>1854.83</ele><time>2026-04-25T00:04:53.000Z</time></trkpt>
        <trkpt lat="27.3562126" lon="105.190819"><ele>1836.18</ele><time>2026-04-25T00:08:36.000Z</time></trkpt>
        <trkpt lat="27.3572084" lon="105.1904984"><ele>1828.78</ele><time>2026-04-25T00:11:24.000Z</time></trkpt>
        <trkpt lat="27.3580083" lon="105.1899951"><ele>1824.97</ele><time>2026-04-25T00:12:49.000Z</time></trkpt>
        <trkpt lat="27.3580806" lon="105.1897912"><ele>1824.2</ele><time>2026-04-25T00:13:08.000Z</time></trkpt>
        <trkpt lat="27.3588646" lon="105.1897906"><ele>1820.5</ele><time>2026-04-25T00:14:15.000Z</time></trkpt>
        <trkpt lat="27.3595235" lon="105.1895452"><ele>1824.1</ele><time>2026-04-25T00:15:45.000Z</time></trkpt>
        <trkpt lat="27.36015" lon="105.1896987"><ele>1825.86</ele><time>2026-04-25T00:18:58.000Z</time></trkpt>
        <trkpt lat="27.3605054" lon="105.1894886"><ele>1825.74</ele><time>2026-04-25T00:20:08.000Z</time></trkpt>
        <trkpt lat="27.3623242" lon="105.1894097"><ele>1814.06</ele><time>2026-04-25T00:24:14.000Z</time></trkpt>
        <trkpt lat="27.3627063" lon="105.1892339"><ele>1811.07</ele><time>2026-04-25T00:24:52.000Z</time></trkpt>
        <trkpt lat="27.3629005" lon="105.1893044"><ele>1806.69</ele><time>2026-04-25T00:25:35.000Z</time></trkpt>
        <trkpt lat="27.3630161" lon="105.1890686"><ele>1806.55</ele><time>2026-04-25T00:27:02.000Z</time></trkpt>
        <trkpt lat="27.3633742" lon="105.1889308"><ele>1805.02</ele><time>2026-04-25T00:27:44.000Z</time></trkpt>
        <trkpt lat="27.3647907" lon="105.1892928"><ele>1797.74</ele><time>2026-04-25T00:33:17.000Z</time></trkpt>
        <trkpt lat="27.3651638" lon="105.1895693"><ele>1795.86</ele><time>2026-04-25T00:33:54.000Z</time></trkpt>
        <trkpt lat="27.3655905" lon="105.1909572"><ele>1793.13</ele><time>2026-04-25T00:38:31.000Z</time></trkpt>
        <trkpt lat="27.366003" lon="105.1915158"><ele>1794.53</ele><time>2026-04-25T00:40:48.000Z</time></trkpt>
        <trkpt lat="27.3660985" lon="105.1919948"><ele>1790.85</ele><time>2026-04-25T00:41:59.000Z</time></trkpt>
        <trkpt lat="27.3660352" lon="105.191635"><ele>1793.74</ele><time>2026-04-25T00:42:39.000Z</time></trkpt>
        <trkpt lat="27.3660735" lon="105.1921084"><ele>1790.61</ele><time>2026-04-25T00:43:39.000Z</time></trkpt>
        <trkpt lat="27.3657487" lon="105.1926634"><ele>1786.49</ele><time>2026-04-25T00:44:39.000Z</time></trkpt>
        <trkpt lat="27.3638269" lon="105.1951041"><ele>1812.88</ele><time>2026-04-25T00:50:10.000Z</time></trkpt>
        <trkpt lat="27.364095" lon="105.1961823"><ele>1822.41</ele><time>2026-04-25T00:51:56.000Z</time></trkpt>
        <trkpt lat="27.3650756" lon="105.1966055"><ele>1818.66</ele><time>2026-04-25T01:01:50.000Z</time></trkpt>
        <trkpt lat="27.3656982" lon="105.1961888"><ele>1811.24</ele><time>2026-04-25T01:03:03.000Z</time></trkpt>
        <trkpt lat="27.3667449" lon="105.1968231"><ele>1792.8</ele><time>2026-04-25T01:05:47.000Z</time></trkpt>
        <trkpt lat="27.3677706" lon="105.1969489"><ele>1776.44</ele><time>2026-04-25T01:08:12.000Z</time></trkpt>
        <trkpt lat="27.3686885" lon="105.1963227"><ele>1767.84</ele><time>2026-04-25T01:11:55.000Z</time></trkpt>
        <trkpt lat="27.3691229" lon="105.1958026"><ele>1765.74</ele><time>2026-04-25T01:12:51.000Z</time></trkpt>
        <trkpt lat="27.3698376" lon="105.1957072"><ele>1758.58</ele><time>2026-04-25T01:13:53.000Z</time></trkpt>
        <trkpt lat="27.3701546" lon="105.1963653"><ele>1755.55</ele><time>2026-04-25T01:14:56.000Z</time></trkpt>
        <trkpt lat="27.3705897" lon="105.1965704"><ele>1753.62</ele><time>2026-04-25T01:15:38.000Z</time></trkpt>
        <trkpt lat="27.371188" lon="105.197239"><ele>1750.76</ele><time>2026-04-25T01:19:00.000Z</time></trkpt>
        <trkpt lat="27.3714283" lon="105.1982266"><ele>1746.49</ele><time>2026-04-25T01:21:11.000Z</time></trkpt>
        <trkpt lat="27.3719483" lon="105.1987469"><ele>1744.58</ele><time>2026-04-25T01:22:17.000Z</time></trkpt>
        <trkpt lat="27.3723536" lon="105.1994672"><ele>1740.55</ele><time>2026-04-25T01:23:33.000Z</time></trkpt>
        <trkpt lat="27.3740694" lon="105.1999884"><ele>1735.54</ele><time>2026-04-25T01:27:38.000Z</time></trkpt>
        <trkpt lat="27.3747689" lon="105.2010693"><ele>1728.94</ele><time>2026-04-25T01:29:28.000Z</time></trkpt>
        <trkpt lat="27.3751411" lon="105.2011981"><ele>1728.53</ele><time>2026-04-25T01:30:00.000Z</time></trkpt>
        <trkpt lat="27.3757447" lon="105.2020887"><ele>1725.33</ele><time>2026-04-25T01:31:22.000Z</time></trkpt>
        <trkpt lat="27.3762561" lon="105.2023894"><ele>1720.64</ele><time>2026-04-25T01:32:26.000Z</time></trkpt>
        <trkpt lat="27.3765129" lon="105.2027659"><ele>1718.78</ele><time>2026-04-25T01:35:03.000Z</time></trkpt>
        <trkpt lat="27.376385" lon="105.2023259"><ele>1722.25</ele><time>2026-04-25T01:36:13.000Z</time></trkpt>
        <trkpt lat="27.3765102" lon="105.2027795"><ele>1717.93</ele><time>2026-04-25T01:40:24.000Z</time></trkpt>
      </trkseg>
      <trkseg>
        <trkpt lat="27.3763867" lon="105.2027"><ele>1718.71</ele><time>2026-04-25T17:07:30.000Z</time></trkpt>
        <trkpt lat="27.3764613" lon="105.2025864"><ele>1718.54</ele><time>2026-04-25T17:07:53.000Z</time></trkpt>
        <trkpt lat="27.376862" lon="105.2031892"><ele>1717.13</ele><time>2026-04-25T17:08:39.000Z</time></trkpt>
        <trkpt lat="27.3775856" lon="105.2034007"><ele>1714.88</ele><time>2026-04-25T17:12:22.000Z</time></trkpt>
        <trkpt lat="27.3777667" lon="105.2039997"><ele>1713.23</ele><time>2026-04-25T17:13:58.000Z</time></trkpt>
        <trkpt lat="27.3784799" lon="105.2050213"><ele>1710.5</ele><time>2026-04-25T17:16:02.000Z</time></trkpt>
        <trkpt lat="27.3791689" lon="105.2052907"><ele>1706.71</ele><time>2026-04-25T17:17:16.000Z</time></trkpt>
        <trkpt lat="27.3799702" lon="105.2052418"><ele>1703.38</ele><time>2026-04-25T17:18:29.000Z</time></trkpt>
        <trkpt lat="27.3804109" lon="105.2056931"><ele>1700.76</ele><time>2026-04-25T17:19:56.000Z</time></trkpt>
        <trkpt lat="27.3813771" lon="105.2062789"><ele>1699.79</ele><time>2026-04-25T17:22:06.000Z</time></trkpt>
        <trkpt lat="27.3816312" lon="105.2067124"><ele>1697.58</ele><time>2026-04-25T17:22:41.000Z</time></trkpt>
        <trkpt lat="27.3821343" lon="105.2069215"><ele>1695.75</ele><time>2026-04-25T17:23:22.000Z</time></trkpt>
        <trkpt lat="27.3822868" lon="105.2079804"><ele>1692.47</ele><time>2026-04-25T17:24:50.000Z</time></trkpt>
        <trkpt lat="27.3821243" lon="105.2081828"><ele>1691.04</ele><time>2026-04-25T17:25:57.000Z</time></trkpt>
        <trkpt lat="27.3822958" lon="105.2080492"><ele>1691.21</ele><time>2026-04-25T17:26:24.000Z</time></trkpt>
        <trkpt lat="27.3838279" lon="105.2094673"><ele>1694.62</ele><time>2026-04-25T17:29:27.000Z</time></trkpt>
        <trkpt lat="27.3841157" lon="105.2089836"><ele>1695.38</ele><time>2026-04-25T17:30:28.000Z</time></trkpt>
        <trkpt lat="27.3845935" lon="105.2093376"><ele>1696.6</ele><time>2026-04-25T17:31:43.000Z</time></trkpt>
        <trkpt lat="27.3848823" lon="105.2093446"><ele>1697.7</ele><time>2026-04-25T17:32:06.000Z</time></trkpt>
        <trkpt lat="27.3853091" lon="105.2090698"><ele>1697.34</ele><time>2026-04-25T17:32:48.000Z</time></trkpt>
        <trkpt lat="27.3856015" lon="105.2084331"><ele>1700.01</ele><time>2026-04-25T17:33:48.000Z</time></trkpt>
        <trkpt lat="27.3861638" lon="105.2084927"><ele>1701.35</ele><time>2026-04-25T17:34:43.000Z</time></trkpt>
        <trkpt lat="27.3866389" lon="105.2082622"><ele>1704.47</ele><time>2026-04-25T17:35:29.000Z</time></trkpt>
        <trkpt lat="27.3870183" lon="105.2062961"><ele>1707.4</ele><time>2026-04-25T17:38:09.000Z</time></trkpt>
        <trkpt lat="27.3880229" lon="105.2059765"><ele>1707.8</ele><time>2026-04-25T17:39:44.000Z</time></trkpt>
        <trkpt lat="27.3880276" lon="105.2057238"><ele>1708.36</ele><time>2026-04-25T17:42:07.000Z</time></trkpt>
        <trkpt lat="27.3880816" lon="105.2059147"><ele>1708.7</ele><time>2026-04-25T17:42:24.000Z</time></trkpt>
        <trkpt lat="27.3882665" lon="105.2058877"><ele>1708.63</ele><time>2026-04-25T17:42:41.000Z</time></trkpt>
        <trkpt lat="27.3901689" lon="105.2069608"><ele>1713.68</ele><time>2026-04-25T17:45:40.000Z</time></trkpt>
        <trkpt lat="27.3904684" lon="105.2068832"><ele>1716.89</ele><time>2026-04-25T17:46:08.000Z</time></trkpt>
        <trkpt lat="27.391359" lon="105.207063"><ele>1721.53</ele><time>2026-04-25T17:47:25.000Z</time></trkpt>
        <trkpt lat="27.3919774" lon="105.2068106"><ele>1722.92</ele><time>2026-04-25T17:48:20.000Z</time></trkpt>
        <trkpt lat="27.3926275" lon="105.2067583"><ele>1724.71</ele><time>2026-04-25T17:49:19.000Z</time></trkpt>
        <trkpt lat="27.3940174" lon="105.207591"><ele>1726.79</ele><time>2026-04-25T17:51:29.000Z</time></trkpt>
        <trkpt lat="27.3945652" lon="105.2077289"><ele>1727.33</ele><time>2026-04-25T17:52:13.000Z</time></trkpt>
        <trkpt lat="27.3953152" lon="105.2085454"><ele>1726.23</ele><time>2026-04-25T17:53:45.000Z</time></trkpt>
        <trkpt lat="27.3969208" lon="105.2091688"><ele>1728.54</ele><time>2026-04-25T17:55:55.000Z</time></trkpt>
        <trkpt lat="27.3979601" lon="105.2093587"><ele>1730.16</ele><time>2026-04-25T17:57:17.000Z</time></trkpt>
        <trkpt lat="27.3991132" lon="105.2100126"><ele>1733.31</ele><time>2026-04-25T17:58:56.000Z</time></trkpt>
        <trkpt lat="27.4007655" lon="105.210106"><ele>1737.02</ele><time>2026-04-25T18:02:18.000Z</time></trkpt>
        <trkpt lat="27.400995" lon="105.210269"><ele>1738.14</ele><time>2026-04-25T18:02:56.000Z</time></trkpt>
        <trkpt lat="27.4013565" lon="105.2112583"><ele>1739.39</ele><time>2026-04-25T18:06:15.000Z</time></trkpt>
        <trkpt lat="27.4021454" lon="105.2120702"><ele>1742.18</ele><time>2026-04-25T18:10:52.000Z</time></trkpt>
        <trkpt lat="27.4025402" lon="105.2121743"><ele>1744.22</ele><time>2026-04-25T18:12:09.000Z</time></trkpt>
        <trkpt lat="27.4038498" lon="105.2131053"><ele>1751.03</ele><time>2026-04-25T18:14:19.000Z</time></trkpt>
        <trkpt lat="27.4048608" lon="105.2129934"><ele>1749.67</ele><time>2026-04-25T18:15:41.000Z</time></trkpt>
        <trkpt lat="27.4062467" lon="105.2137391"><ele>1753.96</ele><time>2026-04-25T18:17:51.000Z</time></trkpt>
        <trkpt lat="27.4070658" lon="105.2153184"><ele>1758.7</ele><time>2026-04-25T18:20:01.000Z</time></trkpt>
        <trkpt lat="27.4075049" lon="105.2157495"><ele>1760.81</ele><time>2026-04-25T18:20:48.000Z</time></trkpt>
        <trkpt lat="27.4081852" lon="105.2178533"><ele>1767.29</ele><time>2026-04-25T18:23:31.000Z</time></trkpt>
        <trkpt lat="27.4096448" lon="105.2190338"><ele>1773.12</ele><time>2026-04-25T18:25:55.000Z</time></trkpt>
        <trkpt lat="27.4103735" lon="105.2192079"><ele>1777.24</ele><time>2026-04-25T18:26:53.000Z</time></trkpt>
        <trkpt lat="27.4108793" lon="105.2196406"><ele>1778.93</ele><time>2026-04-25T18:27:44.000Z</time></trkpt>
        <trkpt lat="27.4113036" lon="105.2201417"><ele>1781.39</ele><time>2026-04-25T18:28:39.000Z</time></trkpt>
        <trkpt lat="27.4114161" lon="105.2207275"><ele>1784.32</ele><time>2026-04-25T18:29:27.000Z</time></trkpt>
        <trkpt lat="27.4122649" lon="105.2218966"><ele>1790.21</ele><time>2026-04-25T18:31:26.000Z</time></trkpt>
        <trkpt lat="27.415329" lon="105.2230437"><ele>1808.05</ele><time>2026-04-25T18:37:01.000Z</time></trkpt>
        <trkpt lat="27.4164364" lon="105.2237502"><ele>1816.48</ele><time>2026-04-25T18:38:50.000Z</time></trkpt>
        <trkpt lat="27.4184212" lon="105.2239224"><ele>1836.28</ele><time>2026-04-25T18:41:54.000Z</time></trkpt>
        <trkpt lat="27.4194279" lon="105.2248988"><ele>1850.6</ele><time>2026-04-25T18:44:23.000Z</time></trkpt>
        <trkpt lat="27.4203384" lon="105.2254113"><ele>1863.63</ele><time>2026-04-25T18:46:02.000Z</time></trkpt>
        <trkpt lat="27.4204178" lon="105.2259884"><ele>1869.86</ele><time>2026-04-25T18:47:15.000Z</time></trkpt>
        <trkpt lat="27.420612" lon="105.2262536"><ele>1876.35</ele><time>2026-04-25T18:47:48.000Z</time></trkpt>
        <trkpt lat="27.4223963" lon="105.2271133"><ele>1909.04</ele><time>2026-04-25T18:51:14.000Z</time></trkpt>
        <trkpt lat="27.4231845" lon="105.2269196"><ele>1929.4</ele><time>2026-04-25T18:53:52.000Z</time></trkpt>
        <trkpt lat="27.4238602" lon="105.2265441"><ele>1931.78</ele><time>2026-04-25T18:56:02.000Z</time></trkpt>
        <trkpt lat="27.424801" lon="105.2268093"><ele>1922.51</ele><time>2026-04-25T18:57:29.000Z</time></trkpt>
        <trkpt lat="27.4251642" lon="105.2267567"><ele>1923.38</ele><time>2026-04-25T18:58:06.000Z</time></trkpt>
        <trkpt lat="27.4240403" lon="105.2261815"><ele>1955.11</ele><time>2026-04-25T19:01:53.000Z</time></trkpt>
        <trkpt lat="27.4232797" lon="105.2262371"><ele>1968.13</ele><time>2026-04-25T19:03:15.000Z</time></trkpt>
        <trkpt lat="27.4230188" lon="105.2254823"><ele>1985.15</ele><time>2026-04-25T19:04:56.000Z</time></trkpt>
        <trkpt lat="27.4236594" lon="105.2253476"><ele>2000.98</ele><time>2026-04-25T19:06:24.000Z</time></trkpt>
        <trkpt lat="27.4248281" lon="105.2245917"><ele>2008.57</ele><time>2026-04-25T19:09:25.000Z</time></trkpt>
        <trkpt lat="27.4251356" lon="105.2250299"><ele>2007.45</ele><time>2026-04-25T19:10:07.000Z</time></trkpt>
        <trkpt lat="27.4256397" lon="105.2253636"><ele>2003.49</ele><time>2026-04-25T19:10:53.000Z</time></trkpt>
        <trkpt lat="27.4261546" lon="105.2250842"><ele>2015.88</ele><time>2026-04-25T19:12:15.000Z</time></trkpt>
        <trkpt lat="27.4259229" lon="105.2241464"><ele>2028.7</ele><time>2026-04-25T19:14:52.000Z</time></trkpt>
        <trkpt lat="27.4263259" lon="105.2230821"><ele>2038.89</ele><time>2026-04-25T19:25:32.000Z</time></trkpt>
        <trkpt lat="27.4255814" lon="105.2219796"><ele>2030.74</ele><time>2026-04-25T19:28:23.000Z</time></trkpt>
        <trkpt lat="27.4259216" lon="105.2211141"><ele>2034.46</ele><time>2026-04-25T19:30:28.000Z</time></trkpt>
        <trkpt lat="27.4256837" lon="105.2203515"><ele>2031.2</ele><time>2026-04-25T19:32:07.000Z</time></trkpt>
        <trkpt lat="27.4261303" lon="105.2187093"><ele>2015.1</ele><time>2026-04-25T19:34:59.000Z</time></trkpt>
        <trkpt lat="27.4259785" lon="105.2174016"><ele>1987.35</ele><time>2026-04-25T19:37:02.000Z</time></trkpt>
        <trkpt lat="27.4263088" lon="105.216902"><ele>1969.6</ele><time>2026-04-25T19:39:11.000Z</time></trkpt>
        <trkpt lat="27.4260974" lon="105.2166589"><ele>1962.92</ele><time>2026-04-25T19:40:12.000Z</time></trkpt>
        <trkpt lat="27.4263655" lon="105.2166518"><ele>1952.74</ele><time>2026-04-25T19:41:03.000Z</time></trkpt>
        <trkpt lat="27.426459" lon="105.2161898"><ele>1943.82</ele><time>2026-04-25T19:42:02.000Z</time></trkpt>
        <trkpt lat="27.4260417" lon="105.2157288"><ele>1927.76</ele><time>2026-04-25T19:43:30.000Z</time></trkpt>
        <trkpt lat="27.4261633" lon="105.2151598"><ele>1910.43</ele><time>2026-04-25T19:44:49.000Z</time></trkpt>
        <trkpt lat="27.4258901" lon="105.215054"><ele>1902.58</ele><time>2026-04-25T19:45:27.000Z</time></trkpt>
        <trkpt lat="27.4260806" lon="105.21443"><ele>1898.28</ele><time>2026-04-25T19:46:35.000Z</time></trkpt>
        <trkpt lat="27.4251959" lon="105.2132777"><ele>1884.04</ele><time>2026-04-25T19:48:54.000Z</time></trkpt>
        <trkpt lat="27.4242134" lon="105.2133374"><ele>1869.8</ele><time>2026-04-25T19:50:40.000Z</time></trkpt>
        <trkpt lat="27.4235364" lon="105.2130564"><ele>1865.01</ele><time>2026-04-25T19:51:44.000Z</time></trkpt>
        <trkpt lat="27.4226707" lon="105.2130724"><ele>1855.35</ele><time>2026-04-25T19:53:02.000Z</time></trkpt>
        <trkpt lat="27.4223616" lon="105.2128095"><ele>1850.78</ele><time>2026-04-25T19:53:34.000Z</time></trkpt>
        <trkpt lat="27.4206406" lon="105.2126506"><ele>1839.16</ele><time>2026-04-25T19:56:01.000Z</time></trkpt>
        <trkpt lat="27.4198464" lon="105.2119483"><ele>1831.64</ele><time>2026-04-25T19:57:30.000Z</time></trkpt>
        <trkpt lat="27.4198248" lon="105.2116531"><ele>1830.63</ele><time>2026-04-25T19:57:53.000Z</time></trkpt>
        <trkpt lat="27.420076" lon="105.2114839"><ele>1826.84</ele><time>2026-04-25T19:58:20.000Z</time></trkpt>
        <trkpt lat="27.4198599" lon="105.2113114"><ele>1823.11</ele><time>2026-04-25T19:58:54.000Z</time></trkpt>
        <trkpt lat="27.4194529" lon="105.2119896"><ele>1815.46</ele><time>2026-04-25T20:00:28.000Z</time></trkpt>
        <trkpt lat="27.4190017" lon="105.2118121"><ele>1813.74</ele><time>2026-04-25T20:01:07.000Z</time></trkpt>
        <trkpt lat="27.4183719" lon="105.2119333"><ele>1810.68</ele><time>2026-04-25T20:01:54.000Z</time></trkpt>
        <trkpt lat="27.4178695" lon="105.2117615"><ele>1810.33</ele><time>2026-04-25T20:02:34.000Z</time></trkpt>
        <trkpt lat="27.4171561" lon="105.2122943"><ele>1809.51</ele><time>2026-04-25T20:05:02.000Z</time></trkpt>
        <trkpt lat="27.4162315" lon="105.2121561"><ele>1823.69</ele><time>2026-04-25T20:06:35.000Z</time></trkpt>
        <trkpt lat="27.4154367" lon="105.2124224"><ele>1842.07</ele><time>2026-04-25T20:08:12.000Z</time></trkpt>
        <trkpt lat="27.4152102" lon="105.2127162"><ele>1847.26</ele><time>2026-04-25T20:08:48.000Z</time></trkpt>
        <trkpt lat="27.4147957" lon="105.2121768"><ele>1849.53</ele><time>2026-04-25T20:09:41.000Z</time></trkpt>
        <trkpt lat="27.4144463" lon="105.2123058"><ele>1845.06</ele><time>2026-04-25T20:10:27.000Z</time></trkpt>
        <trkpt lat="27.4140688" lon="105.2112949"><ele>1852.08</ele><time>2026-04-25T20:12:01.000Z</time></trkpt>
        <trkpt lat="27.4137876" lon="105.2112775"><ele>1851.58</ele><time>2026-04-25T20:12:24.000Z</time></trkpt>
        <trkpt lat="27.4132851" lon="105.2117356"><ele>1841.2</ele><time>2026-04-25T20:13:47.000Z</time></trkpt>
        <trkpt lat="27.4130225" lon="105.2111527"><ele>1844.69</ele><time>2026-04-25T20:17:46.000Z</time></trkpt>
        <trkpt lat="27.4125864" lon="105.2108643"><ele>1845.77</ele><time>2026-04-25T20:18:28.000Z</time></trkpt>
        <trkpt lat="27.4120047" lon="105.2110255"><ele>1851.58</ele><time>2026-04-25T20:19:30.000Z</time></trkpt>
        <trkpt lat="27.4118411" lon="105.2104108"><ele>1858.68</ele><time>2026-04-25T20:20:27.000Z</time></trkpt>
        <trkpt lat="27.4111221" lon="105.2103519"><ele>1867.13</ele><time>2026-04-25T20:21:34.000Z</time></trkpt>
        <trkpt lat="27.4105587" lon="105.2105243"><ele>1867.49</ele><time>2026-04-25T20:22:21.000Z</time></trkpt>
        <trkpt lat="27.4095533" lon="105.2100016"><ele>1856.97</ele><time>2026-04-25T20:24:08.000Z</time></trkpt>
        <trkpt lat="27.4090939" lon="105.210409"><ele>1850.74</ele><time>2026-04-25T20:25:03.000Z</time></trkpt>
        <trkpt lat="27.409025" lon="105.2098405"><ele>1848.31</ele><time>2026-04-25T20:25:45.000Z</time></trkpt>
        <trkpt lat="27.4087905" lon="105.20946"><ele>1844.36</ele><time>2026-04-25T20:26:20.000Z</time></trkpt>
        <trkpt lat="27.4083583" lon="105.2093005"><ele>1839.25</ele><time>2026-04-25T20:27:00.000Z</time></trkpt>
        <trkpt lat="27.4085419" lon="105.208959"><ele>1834.25</ele><time>2026-04-25T20:27:31.000Z</time></trkpt>
        <trkpt lat="27.4083788" lon="105.2081357"><ele>1826.93</ele><time>2026-04-25T20:28:45.000Z</time></trkpt>
        <trkpt lat="27.4075654" lon="105.2071886"><ele>1816.6</ele><time>2026-04-25T20:30:52.000Z</time></trkpt>
        <trkpt lat="27.4075531" lon="105.2061347"><ele>1807.06</ele><time>2026-04-25T20:32:05.000Z</time></trkpt>
        <trkpt lat="27.4073111" lon="105.2053"><ele>1798.67</ele><time>2026-04-25T20:33:07.000Z</time></trkpt>
        <trkpt lat="27.4076061" lon="105.204364"><ele>1793.53</ele><time>2026-04-25T20:34:17.000Z</time></trkpt>
        <trkpt lat="27.4072603" lon="105.2030272"><ele>1790.33</ele><time>2026-04-25T20:35:56.000Z</time></trkpt>
        <trkpt lat="27.4073421" lon="105.2016224"><ele>1786.75</ele><time>2026-04-25T20:37:41.000Z</time></trkpt>
      </trkseg>
  </trk>
</gpx>